Time;durP1;ratioP1;P1;durP2;ratioP2;P2;SDS_P1;SDS_P2;PMS_P1;PMS_P2;Temp;Humidity;BMP_temperature;BMP_pressure;BME280_temperature;BME280_humidity;BME280_pressure;Samples;Min_cycle;Max_cycle;Signal;HPM_P1;HPM_P2
2023/01/28 00:03:08;;;;;;;0.77;0.75;;;;;;;0.06;nan;102829.44;9847736;29;20087;-80
2023/01/28 00:08:12;;;;;;;1.58;1.15;;;;;;;0.03;nan;102821.44;9846689;29;20110;-79
2023/01/28 00:13:14;;;;;;;0.88;0.82;;;;;;;-0.01;nan;102821.91;9858116;29;20398;-80
2023/01/28 00:18:16;;;;;;;0.65;0.65;;;;;;;-0.02;nan;102830.38;9838632;30;20086;-80
2023/01/28 00:23:18;;;;;;;0.50;0.50;;;;;;;-0.01;nan;102811.59;9854109;29;20123;-80
2023/01/28 00:28:21;;;;;;;2.50;1.42;;;;;;;-0.02;nan;102817.50;9831551;29;20059;-80
2023/01/28 00:33:23;;;;;;;1.38;0.93;;;;;;;-0.05;nan;102809.50;9836911;30;20138;-80
2023/01/28 00:38:24;;;;;;;1.85;1.17;;;;;;;-0.04;nan;102806.16;9875182;29;20067;-81
2023/01/28 00:43:26;;;;;;;0.40;0.40;;;;;;;-0.05;nan;102809.50;9851395;29;20114;-80
2023/01/28 00:48:28;;;;;;;0.73;0.68;;;;;;;-0.06;nan;102817.97;9842547;29;20048;-80
2023/01/28 00:53:30;;;;;;;2.08;1.13;;;;;;;-0.15;nan;102817.13;9837707;29;20093;-81
2023/01/28 00:58:32;;;;;;;0.60;0.60;;;;;;;-0.18;nan;102822.94;9824941;29;20052;-80
2023/01/28 01:03:34;;;;;;;0.55;0.55;;;;;;;-0.19;nan;102816.84;9830781;30;20445;-80
2023/01/28 01:08:38;;;;;;;0.80;0.73;;;;;;;-0.17;nan;102823.81;9844427;30;20069;-80
2023/01/28 01:13:41;;;;;;;1.80;1.35;;;;;;;-0.22;nan;102814.00;9853727;29;20131;-81
2023/01/28 01:18:43;;;;;;;0.75;0.75;;;;;;;-0.29;nan;102824.47;9840038;29;20734;-82
2023/01/28 01:23:46;;;;;;;0.65;0.63;;;;;;;-0.33;nan;102826.63;9841446;29;20114;-80
2023/01/28 01:28:49;;;;;;;3.15;1.45;;;;;;;-0.30;nan;102827.84;9859568;29;20055;-81
2023/01/28 01:33:51;;;;;;;1.45;1.05;;;;;;;-0.31;nan;102823.44;9838895;29;20484;-81
2023/01/28 01:38:54;;;;;;;0.60;0.60;;;;;;;-0.36;nan;102823.00;9862955;29;20098;-80
2023/01/28 01:44:02;;;;;;;1.70;1.45;;;;;;;-0.36;nan;102820.44;9861961;29;20079;-80
2023/01/28 01:49:22;;;;;;;0.70;0.60;;;;;;;-0.34;nan;102822.25;9856914;29;20048;-81
2023/01/28 01:54:27;;;;;;;;;;;;;;;-0.38;nan;102819.38;9854043;29;20054;-81
2023/01/28 01:59:33;;;;;;;1.25;0.88;;;;;;;-0.40;nan;102827.72;9841996;29;19933;-81
2023/01/28 02:04:39;;;;;;;0.60;0.60;;;;;;;-0.46;nan;102827.16;9862234;29;20527;-80
2023/01/28 02:09:41;;;;;;;0.70;0.70;;;;;;;-0.43;nan;102835.16;9850398;29;20048;-81
2023/01/28 02:14:48;;;;;;;1.48;1.13;;;;;;;-0.48;nan;102842.44;9848898;29;20056;-81
2023/01/28 02:19:56;;;;;;;0.43;0.43;;;;;;;-0.48;nan;102826.09;9860701;29;20530;-80
2023/01/28 02:25:10;;;;;;;4.05;1.92;;;;;;;-0.51;nan;102825.78;9861631;29;20060;-80
2023/01/28 02:30:20;;;;;;;1.05;0.95;;;;;;;-0.54;nan;102829.91;9847041;30;20044;-80
2023/01/28 02:35:51;;;;;;;0.30;0.30;;;;;;;-0.52;nan;102834.28;9831213;30;20052;-81
2023/01/28 02:41:01;;;;;;;0.68;0.55;;;;;;;-0.61;nan;102832.66;9856168;30;20555;-80
2023/01/28 02:52:18;;;;;;;1.02;0.90;;;;;;;-0.61;nan;102819.78;9860744;30;20052;-80
2023/01/28 02:57:36;;;;;;;2.50;1.85;;;;;;;-0.73;nan;102818.63;9850532;29;20052;-80
2023/01/28 03:02:49;;;;;;;0.68;0.68;;;;;;;-0.78;nan;102814.69;9830251;30;20056;-80
2023/01/28 03:07:52;;;;;;;1.00;0.65;;;;;;;-0.88;nan;102812.03;9843271;29;20537;-80
2023/01/28 03:40:13;;;;;;;0.85;0.70;;;;;;;-1.38;nan;102830.41;9859753;30;20047;-80
2023/01/28 03:45:17;;;;;;;1.33;1.17;;;;;;;-1.43;nan;102831.59;9858306;30;20390;-80
2023/01/28 03:50:20;;;;;;;0.85;0.68;;;;;;;-1.48;nan;102835.38;9850163;29;20121;-80
2023/01/28 03:55:29;;;;;;;0.95;0.60;;;;;;;-1.61;nan;102833.25;9834562;30;20056;-80
2023/01/28 04:00:31;;;;;;;1.17;0.90;;;;;;;-1.66;nan;102825.09;9858910;30;20456;-80
2023/01/28 04:05:34;;;;;;;1.15;1.05;;;;;;;-1.76;nan;102827.50;9845626;30;20445;-80
2023/01/28 04:10:38;;;;;;;1.45;0.85;;;;;;;-1.79;nan;102833.25;9863522;29;20049;-80
2023/01/28 04:16:04;;;;;;;1.15;0.73;;;;;;;-1.83;nan;102830.22;9838554;30;20057;-80
2023/01/28 04:21:12;;;;;;;0.70;0.70;;;;;;;-1.88;nan;102834.00;9853806;29;20178;-79
2023/01/28 04:26:14;;;;;;;0.20;0.20;;;;;;;-2.02;nan;102825.81;9865562;29;20044;-80
2023/01/28 04:31:16;;;;;;;0.47;0.47;;;;;;;-2.10;nan;102834.41;9841702;30;20076;-80
2023/01/28 04:36:36;;;;;;;1.17;0.75;;;;;;;-2.25;nan;102849.16;9847935;30;20055;-82
2023/01/28 04:41:56;;;;;;;0.65;0.57;;;;;;;-2.28;nan;102835.09;9864810;30;20060;-82
2023/01/28 04:47:14;;;;;;;0.45;0.43;;;;;;;-2.43;nan;102837.00;9847682;30;20092;-82
2023/01/28 04:52:28;;;;;;;1.50;1.40;;;;;;;;;;9837889;30;20056;-81
2023/01/28 04:57:38;;;;;;;1.25;1.08;;;;;;;;;;9865860;30;20055;-81
2023/01/28 05:02:41;;;;;;;0.50;0.50;;;;;;;;;;9858039;29;20063;-82
2023/01/28 05:07:44;;;;;;;0.40;0.40;;;;;;;;;;9859210;29;20060;-82
2023/01/28 05:12:46;;;;;;;1.00;0.90;;;;;;;;;;9868451;30;20055;-81
2023/01/28 05:17:47;;;;;;;0.63;0.43;;;;;;;;;;9835086;29;20110;-82
2023/01/28 05:22:52;;;;;;;0.68;0.63;;;;;;;;;;9847670;29;20071;-82
2023/01/28 05:27:56;;;;;;;0.35;0.35;;;;;;;;;;9854284;29;20063;-82
2023/01/28 05:32:59;;;;;;;1.38;0.88;;;;;;;;;;9860790;29;20060;-81
2023/01/28 05:38:01;;;;;;;1.10;1.00;;;;;;;;;;9839562;29;20211;-82
2023/01/28 05:43:02;;;;;;;1.15;0.90;;;;;;;;;;9874584;29;20083;-82
2023/01/28 05:48:13;;;;;;;0.40;0.40;;;;;;;;;;9868211;29;20052;-82
2023/01/28 05:53:41;;;;;;;0.20;0.20;;;;;;;;;;9872451;29;20084;-82
2023/01/28 05:58:42;;;;;;;0.45;0.45;;;;;;;;;;9836758;30;20320;-82
2023/01/28 06:03:44;;;;;;;0.50;0.50;;;;;;;;;;9854919;29;20059;-82
2023/01/28 06:08:46;;;;;;;0.43;0.43;;;;;;;;;;9854144;29;20426;-82
2023/01/28 06:13:53;;;;;;;0.57;0.57;;;;;;;;;;9852459;30;20056;-82
2023/01/28 06:19:13;;;;;;;0.50;0.50;;;;;;;;;;9847158;29;20475;-82
2023/01/28 06:24:15;;;;;;;1.80;0.60;;;;;;;;;;9835257;29;20055;-82
2023/01/28 06:29:16;;;;;;;1.00;0.95;;;;;;;;;;9851426;29;20600;-82
2023/01/28 06:34:18;;;;;;;1.10;0.95;;;;;;;;;;9854152;29;20067;-82
2023/01/28 06:39:23;;;;;;;0.40;0.40;;;;;;;;;;9853295;29;20350;-82
2023/01/28 06:44:25;;;;;;;1.23;1.02;;;;;;;;;;9850498;29;20075;-81
2023/01/28 06:49:27;;;;;;;0.85;0.82;;;;;;;;;;9852779;29;20443;-82
2023/01/28 06:54:29;;;;;;;0.40;0.40;;;;;;;;;;9846378;29;20521;-82
2023/01/28 06:59:30;;;;;;;2.28;1.27;;;;;;;;;;9856380;29;20102;-83
2023/01/28 07:04:31;;;;;;;1.08;1.00;;;;;;;;;;9849543;29;20056;-84
2023/01/28 07:09:33;;;;;;;0.73;0.73;;;;;;;;;;9864487;29;20047;-83
2023/01/28 07:14:34;;;;;;;0.45;0.40;;;;;;;;;;9865965;29;20441;-82
2023/01/28 07:19:36;;;;;;;0.20;0.20;;;;;;;;;;9845620;29;20296;-83
2023/01/28 07:24:37;;;;;;;0.55;0.55;;;;;;;;;;9849185;29;20068;-84
2023/01/28 07:29:39;;;;;;;0.55;0.55;;;;;;;;;;9846134;29;20058;-83
2023/01/28 07:34:41;;;;;;;0.60;0.60;;;;;;;;;;9856353;29;20064;-84
2023/01/28 07:39:43;;;;;;;1.95;1.45;;;;;;;;;;9852967;29;20075;-83
2023/01/28 07:44:44;;;;;;;0.50;0.50;;;;;;;;;;9852408;29;20124;-84
2023/01/28 07:49:46;;;;;;;0.43;0.40;;;;;;;;;;9854832;29;20754;-85
2023/01/28 07:54:48;;;;;;;1.33;0.82;;;;;;;;;;9844586;29;20067;-85
2023/01/28 07:59:50;;;;;;;1.50;1.40;;;;;;;;;;9862221;29;20457;-83
2023/01/28 08:04:51;;;;;;;2.25;0.95;;;;;;;;;;9854164;30;20059;-83
2023/01/28 08:09:53;;;;;;;0.57;0.57;;;;;;;;;;9859970;29;20105;-83
2023/01/28 08:14:55;;;;;;;0.60;0.60;;;;;;;;;;9870040;29;20082;-83
2023/01/28 08:19:56;;;;;;;1.25;1.05;;;;;;;;;;9854141;29;20058;-83
2023/01/28 08:24:58;;;;;;;0.70;0.68;;;;;;;;;;9868085;29;20066;-82
2023/01/28 08:29:59;;;;;;;0.77;0.77;;;;;;;;;;9869290;29;20124;-83
2023/01/28 08:35:04;;;;;;;2.22;1.63;;;;;;;;;;9867642;29;20089;-83
2023/01/28 08:40:06;;;;;;;1.48;1.38;;;;;;;;;;9859644;30;20064;-84
2023/01/28 08:45:07;;;;;;;0.85;0.85;;;;;;;;;;9848129;30;20435;-84
2023/01/28 08:50:09;;;;;;;2.20;2.00;;;;;;;;;;9853102;29;20067;-84
2023/01/28 08:55:11;;;;;;;1.85;1.73;;;;;;;;;;9859165;30;20088;-85
2023/01/28 09:00:13;;;;;;;2.83;2.10;;;;;;;;;;9865026;29;20059;-83
2023/01/28 09:05:15;;;;;;;3.67;1.80;;;;;;;;;;9840396;30;20093;-83
2023/01/28 09:10:19;;;;;;;2.83;2.53;;;;;;;-1.56;nan;102914.28;9854066;30;20521;-85
2023/01/28 09:15:21;;;;;;;1.85;1.40;;;;;;;-1.26;nan;102920.66;9857135;30;20429;-84
2023/01/28 09:20:31;;;;;;;2.63;2.03;;;;;;;-0.77;nan;102924.56;9851757;30;20055;-87
2023/01/28 09:26:01;;;;;;;3.20;1.50;;;;;;;-0.67;nan;102936.66;9866798;29;20133;-86
2023/01/28 09:32:51;;;;;;;;;;;;;;;;;;;;;
2023/01/28 09:38:39;;;;;;;4.97;1.55;;;;;;;-0.67;nan;102942.72;9840347;29;20059;-85
2023/01/28 10:35:40;;;;;;;1.23;1.05;;;;;;;0.94;nan;102888.03;9790574;29;20056;-83
2023/01/28 10:40:54;;;;;;;1.60;1.00;;;;;;;1.21;nan;102877.59;9793143;30;20091;-89
2023/01/28 11:49:51;;;;;;;2.28;1.00;;;;;;;2.54;nan;102810.41;10737937;24;20122;-87
2023/01/28 11:55:40;;;;;;;1.95;1.50;;;;;;;2.70;nan;102822.94;9884657;29;20506;-87
2023/01/28 12:01:52;;;;;;;4.05;1.33;;;;;;;2.78;nan;102817.63;9885725;29;20048;-86
2023/01/28 12:07:42;;;;;;;1.73;1.35;;;;;;;2.80;nan;102799.63;9855914;30;20051;-86
2023/01/28 12:13:25;;;;;;;1.88;1.33;;;;;;;2.91;nan;102806.59;9869242;29;20063;-87
2023/01/28 12:18:38;;;;;;;1.42;1.08;;;;;;;3.00;nan;102784.03;9887629;29;20147;-85
2023/01/28 12:24:11;;;;;;;1.67;1.15;;;;;;;2.93;nan;102792.06;9886706;29;20056;-87
2023/01/28 12:29:38;;;;;;;2.25;1.25;;;;;;;2.96;nan;102770.72;9924433;29;20044;-86
2023/01/28 12:34:56;;;;;;;2.53;1.65;;;;;;;2.80;nan;102763.41;9907740;29;20132;-86
2023/01/28 12:40:43;;;;;;;;;;;;;;;2.67;nan;102751.16;9919578;29;20060;-87
2023/01/28 12:46:51;;;;;;;0.70;0.70;;;;;;;2.78;nan;102744.28;9883942;29;19925;-85
2023/01/28 12:52:45;;;;;;;1.83;1.52;;;;;;;2.54;nan;102727.66;9902117;29;20047;-86
2023/01/28 12:57:43;;;;;;;1.40;1.05;;;;;;;2.54;nan;102743.19;9854194;29;20483;-86
2023/01/28 13:03:29;;;;;;;2.92;1.30;;;;;;;2.70;nan;102734.97;9888754;29;20062;-86
2023/01/28 13:08:51;;;;;;;1.58;1.15;;;;;;;2.71;nan;102710.94;9909955;29;20043;-84
2023/01/28 13:13:53;;;;;;;2.40;1.60;;;;;;;2.75;nan;102723.34;9907222;29;20219;-85
2023/01/28 13:19:41;;;;;;;0.63;0.47;;;;;;;2.58;nan;102728.06;9911251;29;20056;-86
2023/01/28 13:24:45;;;;;;;1.13;1.00;;;;;;;2.53;nan;102731.94;9898154;29;20448;-82
2023/01/28 13:35:46;;;;;;;0.95;0.85;;;;;;;2.60;nan;102739.41;10095773;24;20121;-86
2023/01/28 13:42:07;;;;;;;1.13;0.90;;;;;;;2.69;nan;102743.50;9919164;24;20044;-85
2023/01/28 14:12:15;;;;;;;;;;;;;;;3.04;nan;102733.41;12051495;24;20036;-87
2023/01/28 14:17:50;;;;;;;0.95;0.70;;;;;;;2.97;nan;102741.44;9852239;30;19940;-86
2023/01/28 14:23:03;;;;;;;1.85;1.20;;;;;;;2.98;nan;102740.69;9840197;29;20106;-85
2023/01/28 14:35:08;;;;;;;;;;;;;;;3.05;nan;102747.22;9832409;29;20048;-87
2023/01/28 15:20:59;;;;;;;2.67;1.30;;;;;;;2.75;nan;102755.28;9878900;29;20051;-83
2023/01/28 15:26:33;;;;;;;0.68;0.60;;;;;;;2.75;nan;102751.78;9874329;29;20433;-85
2023/01/28 15:38:36;;;;;;;1.33;1.15;;;;;;;2.71;nan;102753.22;9863093;29;21020;-85
2023/01/28 15:50:37;;;;;;;;;;;;;;;2.55;nan;102727.81;9888957;29;20051;-84
2023/01/28 15:55:43;;;;;;;1.25;0.95;;;;;;;2.45;nan;102708.06;9860067;29;19936;-83
2023/01/28 16:00:48;;;;;;;1.92;1.20;;;;;;;2.36;nan;102707.31;9858770;29;20048;-84
2023/01/28 16:06:01;;;;;;;1.33;1.13;;;;;;;2.27;nan;102712.63;9872974;29;20551;-81
2023/01/28 16:11:03;;;;;;;1.40;1.10;;;;;;;2.19;nan;102715.34;9878060;29;20052;-86
2023/01/28 16:16:05;;;;;;;1.10;0.70;;;;;;;2.12;nan;102724.31;9880968;29;20665;-84
2023/01/28 16:21:13;;;;;;;0.60;0.60;;;;;;;2.04;nan;102727.91;9886839;29;20054;-83
2023/01/28 16:26:24;;;;;;;0.95;0.80;;;;;;;2.05;nan;102727.16;9891051;29;20058;-84
2023/01/28 16:31:26;;;;;;;0.65;0.63;;;;;;;2.06;nan;102716.06;9884004;29;20051;-83
2023/01/28 16:36:28;;;;;;;2.55;1.73;;;;;;;2.07;nan;102736.84;9889340;29;20903;-83
2023/01/28 16:41:39;;;;;;;1.40;0.90;;;;;;;2.09;nan;102734.41;9879173;29;20373;-84
2023/01/28 16:46:42;;;;;;;1.40;1.23;;;;;;;2.09;nan;102743.03;9884758;29;20517;-83
2023/01/28 16:51:44;;;;;;;1.75;1.42;;;;;;;2.11;nan;102756.09;9880532;29;20517;-84
2023/01/28 16:56:46;;;;;;;2.10;1.30;;;;;;;2.10;nan;102762.03;9872634;29;21522;-84
2023/01/28 17:01:48;;;;;;;2.80;1.67;;;;;;;2.11;nan;102756.97;9871617;29;20139;-83
2023/01/28 17:06:49;;;;;;;1.70;1.05;;;;;;;2.06;nan;102741.91;9892144;29;20602;-84
2023/01/28 17:11:53;;;;;;;2.50;1.58;;;;;;;2.06;nan;102747.06;9890991;29;20055;-84
2023/01/28 17:16:55;;;;;;;1.05;0.80;;;;;;;2.05;nan;102751.31;9893200;29;20063;-83
2023/01/28 17:21:57;;;;;;;3.28;1.50;;;;;;;2.04;nan;102752.09;9891803;29;20082;-85
2023/01/28 17:27:01;;;;;;;2.05;1.45;;;;;;;2.06;nan;102765.16;9872011;29;20048;-85
2023/01/28 17:32:03;;;;;;;3.13;1.63;;;;;;;2.04;nan;102754.69;9872451;29;20048;-84
2023/01/28 17:37:04;;;;;;;1.60;1.17;;;;;;;2.05;nan;102765.91;9878676;29;20075;-84
2023/01/28 17:42:06;;;;;;;2.28;1.42;;;;;;;2.09;nan;102780.91;9887137;29;20138;-84
2023/01/28 17:47:09;;;;;;;2.95;1.38;;;;;;;2.09;nan;102768.88;9890818;29;20107;-84
2023/01/28 17:52:13;;;;;;;2.50;1.40;;;;;;;2.10;nan;102781.03;9874836;29;20598;-84
2023/01/28 17:57:15;;;;;;;2.60;1.17;;;;;;;2.07;nan;102783.38;9863637;29;20052;-83
2023/01/28 18:02:18;;;;;;;1.05;0.77;;;;;;;2.04;nan;102790.88;9882274;29;20098;-83
2023/01/28 18:07:20;;;;;;;1.98;1.35;;;;;;;2.06;nan;102786.72;9868378;29;20067;-84
2023/01/28 18:12:24;;;;;;;1.92;1.05;;;;;;;2.03;nan;102777.81;9887440;29;20520;-83
2023/01/28 18:17:28;;;;;;;1.88;1.38;;;;;;;2.02;nan;102776.00;9877086;29;20398;-84
2023/01/28 18:22:30;;;;;;;2.60;1.70;;;;;;;2.00;nan;102772.38;9868451;29;20059;-84
2023/01/28 18:27:33;;;;;;;1.00;0.90;;;;;;;1.99;nan;102775.75;9879256;29;20052;-82
2023/01/28 18:32:36;;;;;;;1.63;0.88;;;;;;;1.94;nan;102777.94;9895057;29;20055;-82
2023/01/28 18:37:38;;;;;;;1.25;0.90;;;;;;;1.90;nan;102784.50;9896340;29;20047;-83
2023/01/28 18:42:40;;;;;;;1.55;0.57;;;;;;;1.86;nan;102779.88;9883109;29;20059;-84
2023/01/28 18:47:42;;;;;;;1.90;1.42;;;;;;;1.76;nan;102780.78;9884372;29;20051;-84
2023/01/28 18:52:44;;;;;;;2.42;1.60;;;;;;;1.66;nan;102791.09;9866484;29;20142;-83
2023/01/28 18:57:46;;;;;;;1.95;1.05;;;;;;;1.57;nan;102786.03;9884300;29;20060;-83
2023/01/28 19:02:47;;;;;;;3.53;2.22;;;;;;;1.49;nan;102779.34;9883507;29;20585;-83
2023/01/28 19:07:49;;;;;;;3.08;1.73;;;;;;;1.45;nan;102769.50;9880600;29;20073;-83
2023/01/28 19:12:51;;;;;;;2.78;1.63;;;;;;;1.46;nan;102766.16;9899283;29;20051;-83
2023/01/28 19:17:53;;;;;;;4.63;2.05;;;;;;;1.45;nan;102766.94;9881126;29;20055;-83
2023/01/28 19:22:55;;;;;;;5.10;2.13;;;;;;;1.45;nan;102750.53;9907120;29;20195;-83
2023/01/28 19:27:57;;;;;;;3.17;2.47;;;;;;;1.43;nan;102742.66;9893295;29;20047;-83
2023/01/28 19:32:59;;;;;;;1.75;0.93;;;;;;;1.38;nan;102742.28;9883520;29;20056;-83
2023/01/28 19:38:02;;;;;;;2.65;1.27;;;;;;;1.33;nan;102737.47;9898371;29;20509;-83
2023/01/28 19:43:03;;;;;;;2.20;1.33;;;;;;;1.28;nan;102742.25;9866241;29;20083;-83
2023/01/28 19:48:05;;;;;;;0.73;0.65;;;;;;;1.28;nan;102746.53;9882174;29;20055;-82
2023/01/28 19:53:07;;;;;;;2.58;1.20;;;;;;;1.24;nan;102742.75;9899393;29;20048;-83
2023/01/28 19:58:09;;;;;;;4.22;1.23;;;;;;;1.22;nan;102747.78;9886336;29;20124;-83
2023/01/28 20:03:11;;;;;;;3.30;1.40;;;;;;;1.28;nan;102749.09;9898604;29;20055;-83
2023/01/28 20:08:13;;;;;;;3.67;2.05;;;;;;;1.30;nan;102757.88;9891084;29;20050;-83
2023/01/28 20:13:14;;;;;;;1.48;0.98;;;;;;;1.30;nan;102740.69;9883401;29;20047;-83
2023/01/28 20:18:16;;;;;;;3.13;1.95;;;;;;;1.32;nan;102751.16;9894604;29;20059;-83
2023/01/28 20:23:18;;;;;;;0.50;0.50;;;;;;;1.31;nan;102734.78;9896662;29;20062;-83
2023/01/28 20:28:24;;;;;;;0.85;0.77;;;;;;;1.35;nan;102739.44;9896510;29;20071;-84
2023/01/28 20:33:25;;;;;;;1.98;1.58;;;;;;;1.31;nan;102739.03;9875033;29;20453;-84
2023/01/28 20:38:27;;;;;;;0.90;0.82;;;;;;;1.34;nan;102754.78;9891227;29;20718;-83
2023/01/28 20:49:13;;;;;;;1.83;1.30;;;;;;;1.39;nan;102725.09;10472830;24;20084;-81
2023/01/28 20:54:16;;;;;;;2.90;1.85;;;;;;;1.39;nan;102723.41;9932667;29;20046;-81
2023/01/28 20:59:18;;;;;;;1.60;1.20;;;;;;;1.40;nan;102721.75;9906784;29;20315;-81
2023/01/28 21:04:20;;;;;;;1.42;0.70;;;;;;;1.41;nan;102723.53;9907535;29;20452;-81
2023/01/28 21:09:24;;;;;;;4.53;0.98;;;;;;;1.39;nan;102718.25;9917411;29;20417;-81
2023/01/28 21:14:25;;;;;;;0.52;0.52;;;;;;;1.42;nan;102715.91;9915995;29;20055;-82
2023/01/28 21:19:27;;;;;;;1.83;0.98;;;;;;;1.42;nan;102722.78;9908241;29;20121;-81
2023/01/28 21:24:29;;;;;;;2.25;1.48;;;;;;;1.42;nan;102720.19;9910879;29;20505;-81
2023/01/28 21:29:31;;;;;;;1.65;1.33;;;;;;;1.39;nan;102718.25;9917086;29;20046;-81
2023/01/28 21:34:32;;;;;;;1.50;1.13;;;;;;;1.42;nan;102722.78;9904971;29;20505;-81
2023/01/28 21:39:34;;;;;;;1.15;1.05;;;;;;;1.43;nan;102727.19;9902794;29;20482;-81
2023/01/28 21:44:35;;;;;;;4.20;3.15;;;;;;;1.41;nan;102724.47;9927943;29;20578;-81
2023/01/28 21:49:37;;;;;;;1.52;1.27;;;;;;;1.42;nan;102718.50;9909800;29;20086;-81
2023/01/28 21:54:39;;;;;;;0.82;0.57;;;;;;;1.42;nan;102709.88;9903659;29;20078;-81
2023/01/28 21:59:40;;;;;;;6.13;3.00;;;;;;;1.40;nan;102711.44;9925596;29;20464;-81
2023/01/28 22:04:50;;;;;;;2.17;1.55;;;;;;;1.42;nan;102697.84;9924380;29;20432;-81
2023/01/28 22:09:52;;;;;;;1.33;1.20;;;;;;;1.40;nan;102704.56;9928261;29;20050;-81
2023/01/28 22:14:54;;;;;;;4.85;1.95;;;;;;;1.41;nan;102705.47;9925499;29;20504;-81
2023/01/28 22:19:55;;;;;;;1.55;1.30;;;;;;;1.40;nan;102699.41;9921368;29;20059;-81
2023/01/28 22:25:03;;;;;;;2.03;1.65;;;;;;;1.39;89.55;102694.13;10600164;27;20140;-80
2023/01/28 22:30:05;;;;;;;2.70;1.05;;;;;;;1.41;89.61;102688.31;10579890;28;20043;-79
2023/01/28 22:35:07;;;;;;;2.63;1.77;;;;;;;1.40;89.59;102693.34;10598475;28;20082;-81
2023/01/28 22:40:09;;;;;;;1.75;1.52;;;;;;;1.41;89.91;102685.75;10581114;28;20510;-81
2023/01/28 22:45:11;;;;;;;4.03;1.98;;;;;;;1.41;88.88;102672.84;10601950;28;20062;-81
2023/01/28 22:50:13;;;;;;;2.05;1.45;;;;;;;1.38;89.24;102670.00;10604051;28;20035;-81
2023/01/28 22:55:15;;;;;;;1.70;1.27;;;;;;;1.36;89.27;102657.72;10580971;28;20047;-81
2023/01/28 23:00:18;;;;;;;1.60;1.20;;;;;;;1.33;89.20;102649.72;10582667;28;20415;-81
2023/01/28 23:05:20;;;;;;;0.95;0.75;;;;;;;1.24;89.25;102655.00;10583914;28;20044;-81
2023/01/28 23:10:22;;;;;;;1.20;0.93;;;;;;;1.16;89.19;102650.88;10607447;28;20050;-81
2023/01/28 23:26:03;;;;;;;1.80;1.10;;;;;;;0.87;89.45;102642.47;10601280;28;20044;-81
2023/01/28 23:31:07;;;;;;;1.17;1.08;;;;;;;0.76;89.49;102643.19;10600133;28;20035;-82
2023/01/28 23:36:09;;;;;;;2.10;1.60;;;;;;;0.65;89.56;102646.53;10573112;28;20460;-81
2023/01/28 23:41:10;;;;;;;1.27;1.08;;;;;;;0.61;89.46;102654.75;10571608;28;20032;-82
2023/01/28 23:46:12;;;;;;;1.42;1.33;;;;;;;0.53;89.54;102660.16;10571451;28;20047;-81
2023/01/28 23:51:14;;;;;;;1.10;0.98;;;;;;;0.49;89.65;102663.22;10571149;28;20039;-81
2023/01/28 23:56:17;;;;;;;2.67;1.55;;;;;;;0.49;89.97;102665.78;10571376;28;20035;-81
